sensor_id;sensor_type;location;lat;lon;timestamp;pressure;altitude;pressure_sealevel;temperature;humidity
57600;BME280;43426;43.594;24.334;2024-03-08T00:01:48;101539.44;;;3.48;100.00
57600;BME280;43426;43.594;24.334;2024-03-08T00:04:15;101566.78;;;3.65;100.00
57600;BME280;43426;43.594;24.334;2024-03-08T00:06:41;101557.81;;;3.66;100.00
57600;BME280;43426;43.594;24.334;2024-03-08T00:09:06;101542.88;;;3.50;100.00
57600;BME280;43426;43.594;24.334;2024-03-08T00:11:34;101565.38;;;3.59;100.00
57600;BME280;43426;43.594;24.334;2024-03-08T00:14:00;101563.66;;;3.45;100.00
57600;BME280;43426;43.594;24.334;2024-03-08T00:16:25;101545.22;;;3.42;100.00
57600;BME280;43426;43.594;24.334;2024-03-08T00:18:51;101546.31;;;3.25;100.00
57600;BME280;43426;43.594;24.334;2024-03-08T00:21:16;101552.09;;;3.32;100.00
57600;BME280;43426;43.594;24.334;2024-03-08T00:23:42;101567.06;;;3.47;100.00
57600;BME280;43426;43.594;24.334;2024-03-08T00:26:07;101561.72;;;3.34;100.00
57600;BME280;43426;43.594;24.334;2024-03-08T00:28:33;101577.84;;;3.46;100.00
57600;BME280;43426;43.594;24.334;2024-03-08T00:31:01;101577.28;;;3.28;100.00
57600;BME280;43426;43.594;24.334;2024-03-08T00:33:27;101572.38;;;3.21;100.00
57600;BME280;43426;43.594;24.334;2024-03-08T00:35:53;101556.03;;;3.13;100.00
57600;BME280;43426;43.594;24.334;2024-03-08T00:38:19;101573.06;;;3.38;100.00
57600;BME280;43426;43.594;24.334;2024-03-08T00:40:45;101545.84;;;3.05;100.00
57600;BME280;43426;43.594;24.334;2024-03-08T00:43:11;101540.69;;;2.89;100.00
57600;BME280;43426;43.594;24.334;2024-03-08T00:45:36;101536.66;;;2.97;100.00
57600;BME280;43426;43.594;24.334;2024-03-08T00:48:08;101533.91;;;3.11;100.00
57600;BME280;43426;43.594;24.334;2024-03-08T00:50:33;101579.22;;;3.26;100.00
57600;BME280;43426;43.594;24.334;2024-03-08T00:52:59;101572.38;;;3.21;100.00
57600;BME280;43426;43.594;24.334;2024-03-08T00:55:25;101564.75;;;3.15;100.00
57600;BME280;43426;43.594;24.334;2024-03-08T00:57:51;101582.59;;;3.15;100.00
57600;BME280;43426;43.594;24.334;2024-03-08T01:00:19;101558.72;;;2.99;100.00
57600;BME280;43426;43.594;24.334;2024-03-08T01:02:46;101576.81;;;3.21;100.00
57600;BME280;43426;43.594;24.334;2024-03-08T01:05:12;101571.47;;;3.08;100.00
57600;BME280;43426;43.594;24.334;2024-03-08T01:07:37;101582.38;;;3.18;100.00
57600;BME280;43426;43.594;24.334;2024-03-08T01:10:03;101585.59;;;3.23;100.00
57600;BME280;43426;43.594;24.334;2024-03-08T01:12:29;101572.25;;;3.23;100.00
57600;BME280;43426;43.594;24.334;2024-03-08T01:14:55;101574.25;;;3.06;100.00
57600;BME280;43426;43.594;24.334;2024-03-08T01:17:21;101551.53;;;2.86;100.00
57600;BME280;43426;43.594;24.334;2024-03-08T01:19:47;101565.28;;;3.08;100.00
57600;BME280;43426;43.594;24.334;2024-03-08T01:22:12;101581.88;;;2.98;100.00
57600;BME280;43426;43.594;24.334;2024-03-08T01:24:38;101572.88;;;2.86;100.00
57600;BME280;43426;43.594;24.334;2024-03-08T01:27:04;101526.25;;;2.79;100.00
57600;BME280;43426;43.594;24.334;2024-03-08T01:29:29;101536.47;;;2.72;100.00
57600;BME280;43426;43.594;24.334;2024-03-08T01:31:55;101571.81;;;2.89;100.00
57600;BME280;43426;43.594;24.334;2024-03-08T01:34:21;101534.53;;;2.62;100.00
57600;BME280;43426;43.594;24.334;2024-03-08T01:36:48;101583.19;;;3.05;100.00
57600;BME280;43426;43.594;24.334;2024-03-08T01:39:14;101544.06;;;2.79;100.00
57600;BME280;43426;43.594;24.334;2024-03-08T01:41:39;101551.50;;;2.73;100.00
57600;BME280;43426;43.594;24.334;2024-03-08T01:44:06;101556.25;;;2.68;100.00
57600;BME280;43426;43.594;24.334;2024-03-08T01:46:33;101597.63;;;2.88;100.00
57600;BME280;43426;43.594;24.334;2024-03-08T01:49:00;101558.56;;;2.60;100.00
57600;BME280;43426;43.594;24.334;2024-03-08T01:51:27;101584.88;;;2.79;100.00
57600;BME280;43426;43.594;24.334;2024-03-08T01:53:55;101585.75;;;2.80;100.00
57600;BME280;43426;43.594;24.334;2024-03-08T01:56:24;101584.50;;;2.85;100.00
57600;BME280;43426;43.594;24.334;2024-03-08T01:58:50;101550.31;;;2.65;100.00
57600;BME280;43426;43.594;24.334;2024-03-08T02:01:16;101585.84;;;2.78;100.00
57600;BME280;43426;43.594;24.334;2024-03-08T02:03:44;101555.47;;;2.53;100.00
57600;BME280;43426;43.594;24.334;2024-03-08T02:06:13;101583.00;;;2.67;100.00
57600;BME280;43426;43.594;24.334;2024-03-08T02:08:41;101539.66;;;2.50;100.00
57600;BME280;43426;43.594;24.334;2024-03-08T02:11:07;101567.81;;;2.69;100.00
57600;BME280;43426;43.594;24.334;2024-03-08T02:13:33;101560.75;;;2.68;100.00
57600;BME280;43426;43.594;24.334;2024-03-08T02:15:59;101586.44;;;2.69;100.00
57600;BME280;43426;43.594;24.334;2024-03-08T02:18:26;101551.25;;;2.64;100.00
57600;BME280;43426;43.594;24.334;2024-03-08T02:20:55;101579.56;;;2.79;100.00
57600;BME280;43426;43.594;24.334;2024-03-08T02:23:21;101563.41;;;2.68;100.00
57600;BME280;43426;43.594;24.334;2024-03-08T02:25:49;101517.25;;;2.40;100.00
57600;BME280;43426;43.594;24.334;2024-03-08T02:28:15;101537.56;;;2.55;100.00
57600;BME280;43426;43.594;24.334;2024-03-08T02:30:41;101534.78;;;2.57;100.00
57600;BME280;43426;43.594;24.334;2024-03-08T02:33:07;101573.50;;;2.77;100.00
57600;BME280;43426;43.594;24.334;2024-03-08T02:35:34;101534.91;;;2.55;100.00
57600;BME280;43426;43.594;24.334;2024-03-08T02:38:00;101583.09;;;2.80;100.00
57600;BME280;43426;43.594;24.334;2024-03-08T02:40:26;101574.53;;;2.75;100.00
57600;BME280;43426;43.594;24.334;2024-03-08T02:42:51;101562.22;;;2.59;100.00
57600;BME280;43426;43.594;24.334;2024-03-08T02:45:18;101580.81;;;2.73;100.00
57600;BME280;43426;43.594;24.334;2024-03-08T02:47:43;101583.13;;;2.65;100.00
57600;BME280;43426;43.594;24.334;2024-03-08T02:50:09;101584.16;;;2.77;100.00
57600;BME280;43426;43.594;24.334;2024-03-08T02:52:34;101567.38;;;2.75;100.00
57600;BME280;43426;43.594;24.334;2024-03-08T02:55:03;101552.50;;;2.58;100.00
57600;BME280;43426;43.594;24.334;2024-03-08T02:57:30;101586.59;;;2.80;100.00
57600;BME280;43426;43.594;24.334;2024-03-08T02:59:55;101582.44;;;2.76;100.00
57600;BME280;43426;43.594;24.334;2024-03-08T03:02:21;101574.63;;;2.73;100.00
57600;BME280;43426;43.594;24.334;2024-03-08T03:04:48;101589.16;;;2.82;100.00
57600;BME280;43426;43.594;24.334;2024-03-08T03:07:14;101588.25;;;2.68;100.00
57600;BME280;43426;43.594;24.334;2024-03-08T03:09:39;101597.13;;;2.69;100.00
57600;BME280;43426;43.594;24.334;2024-03-08T03:12:06;101601.81;;;2.78;100.00
57600;BME280;43426;43.594;24.334;2024-03-08T03:14:36;101576.78;;;2.53;100.00
57600;BME280;43426;43.594;24.334;2024-03-08T03:17:05;101585.47;;;2.70;100.00
57600;BME280;43426;43.594;24.334;2024-03-08T03:19:31;101606.63;;;2.73;100.00
57600;BME280;43426;43.594;24.334;2024-03-08T03:21:56;101588.59;;;2.77;100.00
57600;BME280;43426;43.594;24.334;2024-03-08T03:24:22;101599.16;;;2.78;100.00
57600;BME280;43426;43.594;24.334;2024-03-08T03:26:48;101602.91;;;2.76;100.00
57600;BME280;43426;43.594;24.334;2024-03-08T03:29:15;101599.56;;;2.72;100.00
57600;BME280;43426;43.594;24.334;2024-03-08T03:31:42;101592.16;;;2.63;100.00
57600;BME280;43426;43.594;24.334;2024-03-08T03:34:07;101599.78;;;2.69;100.00
57600;BME280;43426;43.594;24.334;2024-03-08T03:36:34;101599.78;;;2.69;100.00
57600;BME280;43426;43.594;24.334;2024-03-08T03:39:01;101601.13;;;2.62;100.00
57600;BME280;43426;43.594;24.334;2024-03-08T03:41:38;101588.75;;;2.61;100.00
57600;BME280;43426;43.594;24.334;2024-03-08T03:44:07;101603.38;;;2.68;100.00
57600;BME280;43426;43.594;24.334;2024-03-08T03:46:33;101552.81;;;2.39;100.00
57600;BME280;43426;43.594;24.334;2024-03-08T03:48:58;101588.84;;;2.59;100.00
57600;BME280;43426;43.594;24.334;2024-03-08T03:51:24;101579.16;;;2.58;100.00
57600;BME280;43426;43.594;24.334;2024-03-08T03:53:50;101614.16;;;2.66;100.00
57600;BME280;43426;43.594;24.334;2024-03-08T03:56:16;101599.88;;;2.67;100.00
57600;BME280;43426;43.594;24.334;2024-03-08T03:58:41;101605.22;;;2.67;100.00
57600;BME280;43426;43.594;24.334;2024-03-08T04:01:07;101589.03;;;2.56;100.00
57600;BME280;43426;43.594;24.334;2024-03-08T04:03:33;101566.25;;;2.37;100.00
57600;BME280;43426;43.594;24.334;2024-03-08T04:05:58;101592.78;;;2.53;100.00
57600;BME280;43426;43.594;24.334;2024-03-08T04:08:24;101581.44;;;2.50;100.00
57600;BME280;43426;43.594;24.334;2024-03-08T04:10:50;101580.00;;;2.59;100.00
57600;BME280;43426;43.594;24.334;2024-03-08T04:13:16;101611.66;;;2.78;100.00
57600;BME280;43426;43.594;24.334;2024-03-08T04:15:41;101622.59;;;2.73;100.00
57600;BME280;43426;43.594;24.334;2024-03-08T04:18:09;101599.00;;;2.67;100.00
57600;BME280;43426;43.594;24.334;2024-03-08T04:20:35;101619.84;;;2.75;100.00
57600;BME280;43426;43.594;24.334;2024-03-08T04:23:01;101619.84;;;2.75;100.00
57600;BME280;43426;43.594;24.334;2024-03-08T04:25:27;101613.84;;;2.71;100.00
57600;BME280;43426;43.594;24.334;2024-03-08T04:27:53;101634.59;;;2.66;100.00
57600;BME280;43426;43.594;24.334;2024-03-08T04:30:18;101607.41;;;2.46;100.00
57600;BME280;43426;43.594;24.334;2024-03-08T04:32:44;101638.50;;;2.75;100.00
57600;BME280;43426;43.594;24.334;2024-03-08T04:35:09;101620.47;;;2.51;100.00
57600;BME280;43426;43.594;24.334;2024-03-08T04:37:35;101640.78;;;2.66;100.00
57600;BME280;43426;43.594;24.334;2024-03-08T04:40:00;101632.28;;;2.74;100.00
57600;BME280;43426;43.594;24.334;2024-03-08T04:42:29;101637.75;;;2.58;100.00
57600;BME280;43426;43.594;24.334;2024-03-08T04:44:57;101627.16;;;2.71;100.00
57600;BME280;43426;43.594;24.334;2024-03-08T04:47:22;101642.31;;;2.70;100.00
57600;BME280;43426;43.594;24.334;2024-03-08T04:49:48;101658.00;;;2.89;100.00
57600;BME280;43426;43.594;24.334;2024-03-08T04:52:13;101653.81;;;2.71;100.00
57600;BME280;43426;43.594;24.334;2024-03-08T04:54:39;101628.03;;;2.57;100.00
57600;BME280;43426;43.594;24.334;2024-03-08T04:57:04;101662.97;;;2.67;100.00
57600;BME280;43426;43.594;24.334;2024-03-08T04:59:30;101659.13;;;2.85;100.00
57600;BME280;43426;43.594;24.334;2024-03-08T05:01:55;101674.72;;;2.92;100.00
57600;BME280;43426;43.594;24.334;2024-03-08T05:04:21;101684.91;;;2.99;100.00
57600;BME280;43426;43.594;24.334;2024-03-08T05:06:48;101676.66;;;2.89;100.00
57600;BME280;43426;43.594;24.334;2024-03-08T05:09:13;101693.59;;;2.88;100.00
57600;BME280;43426;43.594;24.334;2024-03-08T05:11:43;101688.25;;;2.88;100.00
57600;BME280;43426;43.594;24.334;2024-03-08T05:14:13;101670.47;;;2.75;100.00
57600;BME280;43426;43.594;24.334;2024-03-08T05:16:45;101693.50;;;2.90;100.00
57600;BME280;43426;43.594;24.334;2024-03-08T05:19:17;101673.63;;;2.81;100.00
57600;BME280;43426;43.594;24.334;2024-03-08T05:21:47;101687.78;;;2.82;100.00
57600;BME280;43426;43.594;24.334;2024-03-08T05:24:13;101687.31;;;2.75;100.00
57600;BME280;43426;43.594;24.334;2024-03-08T05:26:39;101700.25;;;2.81;100.00
57600;BME280;43426;43.594;24.334;2024-03-08T05:29:05;101722.22;;;2.85;100.00
57600;BME280;43426;43.594;24.334;2024-03-08T05:31:42;101687.25;;;2.62;100.00
57600;BME280;43426;43.594;24.334;2024-03-08T05:34:08;101710.72;;;2.70;100.00
57600;BME280;43426;43.594;24.334;2024-03-08T05:36:35;101698.94;;;2.60;100.00
57600;BME280;43426;43.594;24.334;2024-03-08T05:39:01;101705.31;;;2.57;100.00
57600;BME280;43426;43.594;24.334;2024-03-08T05:41:26;101716.84;;;2.58;100.00
57600;BME280;43426;43.594;24.334;2024-03-08T05:43:52;101746.25;;;2.70;100.00
57600;BME280;43426;43.594;24.334;2024-03-08T05:46:17;101723.84;;;2.59;100.00
57600;BME280;43426;43.594;24.334;2024-03-08T05:48:43;101715.88;;;2.44;100.00
57600;BME280;43426;43.594;24.334;2024-03-08T05:51:09;101712.72;;;2.37;100.00
57600;BME280;43426;43.594;24.334;2024-03-08T05:53:35;101753.94;;;2.61;100.00
57600;BME280;43426;43.594;24.334;2024-03-08T05:56:00;101749.47;;;2.61;100.00
57600;BME280;43426;43.594;24.334;2024-03-08T05:58:27;101764.50;;;2.77;100.00
57600;BME280;43426;43.594;24.334;2024-03-08T06:00:55;101761.19;;;2.73;100.00
57600;BME280;43426;43.594;24.334;2024-03-08T06:03:21;101760.41;;;2.71;100.00
57600;BME280;43426;43.594;24.334;2024-03-08T06:05:50;101771.47;;;2.65;100.00
57600;BME280;43426;43.594;24.334;2024-03-08T06:08:16;101759.47;;;2.58;100.00
57600;BME280;43426;43.594;24.334;2024-03-08T06:10:42;101763.94;;;2.71;100.00
57600;BME280;43426;43.594;24.334;2024-03-08T06:13:07;101757.16;;;2.66;100.00
57600;BME280;43426;43.594;24.334;2024-03-08T06:15:33;101742.91;;;2.52;100.00
57600;BME280;43426;43.594;24.334;2024-03-08T06:17:59;101768.59;;;2.68;100.00
57600;BME280;43426;43.594;24.334;2024-03-08T06:20:25;101775.53;;;2.85;100.00
57600;BME280;43426;43.594;24.334;2024-03-08T06:22:51;101737.66;;;2.65;100.00
57600;BME280;43426;43.594;24.334;2024-03-08T06:25:17;101779.25;;;2.82;100.00
57600;BME280;43426;43.594;24.334;2024-03-08T06:27:43;101744.81;;;2.79;100.00
57600;BME280;43426;43.594;24.334;2024-03-08T06:30:10;101763.47;;;2.79;100.00
57600;BME280;43426;43.594;24.334;2024-03-08T06:32:36;101774.69;;;2.99;100.00
57600;BME280;43426;43.594;24.334;2024-03-08T06:35:03;101758.13;;;2.94;100.00
57600;BME280;43426;43.594;24.334;2024-03-08T06:37:32;101726.03;;;2.81;100.00
57600;BME280;43426;43.594;24.334;2024-03-08T06:39:57;101780.69;;;3.02;100.00
57600;BME280;43426;43.594;24.334;2024-03-08T06:42:22;101770.78;;;2.90;100.00
57600;BME280;43426;43.594;24.334;2024-03-08T06:44:48;101790.50;;;3.02;100.00
57600;BME280;43426;43.594;24.334;2024-03-08T06:47:16;101784.09;;;3.04;100.00
57600;BME280;43426;43.594;24.334;2024-03-08T06:49:42;101764.50;;;2.77;100.00
57600;BME280;43426;43.594;24.334;2024-03-08T06:52:09;101780.13;;;2.83;100.00
57600;BME280;43426;43.594;24.334;2024-03-08T06:54:35;101782.41;;;2.89;100.00
57600;BME280;43426;43.594;24.334;2024-03-08T06:57:01;101803.25;;;2.97;100.00
57600;BME280;43426;43.594;24.334;2024-03-08T06:59:29;101796.41;;;2.93;100.00
57600;BME280;43426;43.594;24.334;2024-03-08T07:01:54;101760.22;;;2.88;100.00
57600;BME280;43426;43.594;24.334;2024-03-08T07:04:20;101782.47;;;3.16;100.00
57600;BME280;43426;43.594;24.334;2024-03-08T07:06:47;101802.00;;;3.31;100.00
57600;BME280;43426;43.594;24.334;2024-03-08T07:09:15;101777.06;;;3.03;100.00
57600;BME280;43426;43.594;24.334;2024-03-08T07:11:44;101778.88;;;3.17;100.00
57600;BME280;43426;43.594;24.334;2024-03-08T07:14:10;101778.59;;;3.08;100.00
57600;BME280;43426;43.594;24.334;2024-03-08T07:16:35;101792.59;;;3.26;100.00
57600;BME280;43426;43.594;24.334;2024-03-08T07:19:01;101768.31;;;3.16;100.00
57600;BME280;43426;43.594;24.334;2024-03-08T07:21:27;101799.44;;;3.30;100.00
57600;BME280;43426;43.594;24.334;2024-03-08T07:23:52;101795.22;;;3.40;100.00
57600;BME280;43426;43.594;24.334;2024-03-08T07:26:35;101782.84;;;3.24;100.00
57600;BME280;43426;43.594;24.334;2024-03-08T07:29:00;101779.69;;;3.32;100.00
57600;BME280;43426;43.594;24.334;2024-03-08T07:31:26;101808.25;;;3.45;100.00
57600;BME280;43426;43.594;24.334;2024-03-08T07:33:52;101806.31;;;3.61;100.00
57600;BME280;43426;43.594;24.334;2024-03-08T07:36:19;101800.34;;;3.43;100.00
57600;BME280;43426;43.594;24.334;2024-03-08T07:38:44;101778.09;;;3.30;100.00
57600;BME280;43426;43.594;24.334;2024-03-08T07:41:12;101814.41;;;3.60;100.00
57600;BME280;43426;43.594;24.334;2024-03-08T07:43:38;101816.88;;;3.63;100.00
57600;BME280;43426;43.594;24.334;2024-03-08T07:46:03;101783.09;;;3.49;100.00
57600;BME280;43426;43.594;24.334;2024-03-08T07:48:29;101819.41;;;3.79;100.00
57600;BME280;43426;43.594;24.334;2024-03-08T07:50:56;101822.56;;;3.71;100.00
57600;BME280;43426;43.594;24.334;2024-03-08T07:53:22;101820.13;;;3.68;100.00
57600;BME280;43426;43.594;24.334;2024-03-08T07:55:49;101803.09;;;3.56;100.00
57600;BME280;43426;43.594;24.334;2024-03-08T07:58:15;101813.84;;;3.69;100.00
57600;BME280;43426;43.594;24.334;2024-03-08T08:00:40;101811.38;;;3.66;100.00
57600;BME280;43426;43.594;24.334;2024-03-08T08:03:08;101780.06;;;3.40;100.00
57600;BME280;43426;43.594;24.334;2024-03-08T08:05:34;101812.56;;;3.74;100.00
57600;BME280;43426;43.594;24.334;2024-03-08T08:08:04;101827.31;;;3.80;100.00
57600;BME280;43426;43.594;24.334;2024-03-08T08:10:34;101788.97;;;3.68;100.00
57600;BME280;43426;43.594;24.334;2024-03-08T08:12:59;101781.94;;;3.80;100.00
57600;BME280;43426;43.594;24.334;2024-03-08T08:15:25;101820.09;;;3.82;100.00
57600;BME280;43426;43.594;24.334;2024-03-08T08:17:50;101804.19;;;3.66;100.00
57600;BME280;43426;43.594;24.334;2024-03-08T08:20:17;101827.88;;;3.85;100.00
57600;BME280;43426;43.594;24.334;2024-03-08T08:22:43;101818.09;;;3.99;100.00
57600;BME280;43426;43.594;24.334;2024-03-08T08:25:09;101821.31;;;4.04;100.00
57600;BME280;43426;43.594;24.334;2024-03-08T08:27:38;101819.13;;;4.11;100.00
57600;BME280;43426;43.594;24.334;2024-03-08T08:30:05;101829.81;;;4.23;100.00
57600;BME280;43426;43.594;24.334;2024-03-08T08:32:34;101835.06;;;4.25;100.00
57600;BME280;43426;43.594;24.334;2024-03-08T08:35:01;101826.47;;;4.07;100.00
57600;BME280;43426;43.594;24.334;2024-03-08T08:37:27;101832.06;;;4.17;100.00
57600;BME280;43426;43.594;24.334;2024-03-08T08:39:54;101802.06;;;3.99;100.00
57600;BME280;43426;43.594;24.334;2024-03-08T08:42:19;101818.91;;;4.14;100.00
57600;BME280;43426;43.594;24.334;2024-03-08T08:44:45;101823.06;;;4.18;100.00
57600;BME280;43426;43.594;24.334;2024-03-08T08:47:11;101830.56;;;4.13;100.00
57600;BME280;43426;43.594;24.334;2024-03-08T08:49:38;101834.69;;;4.04;100.00
57600;BME280;43426;43.594;24.334;2024-03-08T08:52:04;101824.00;;;4.04;100.00
57600;BME280;43426;43.594;24.334;2024-03-08T08:54:29;101795.25;;;3.95;100.00
57600;BME280;43426;43.594;24.334;2024-03-08T08:56:55;101830.13;;;4.19;100.00
57600;BME280;43426;43.594;24.334;2024-03-08T08:59:20;101833.81;;;4.31;100.00
57600;BME280;43426;43.594;24.334;2024-03-08T09:01:48;101777.97;;;4.00;100.00
57600;BME280;43426;43.594;24.334;2024-03-08T09:04:13;101818.53;;;4.33;100.00
57600;BME280;43426;43.594;24.334;2024-03-08T09:06:39;101830.22;;;4.45;100.00
57600;BME280;43426;43.594;24.334;2024-03-08T09:09:07;101788.56;;;4.15;100.00
57600;BME280;43426;43.594;24.334;2024-03-08T09:11:36;101796.19;;;4.34;100.00
57600;BME280;43426;43.594;24.334;2024-03-08T09:14:07;101827.56;;;4.57;100.00
57600;BME280;43426;43.594;24.334;2024-03-08T09:16:32;101812.34;;;4.58;100.00
57600;BME280;43426;43.594;24.334;2024-03-08T09:18:58;101821.47;;;4.81;100.00
57600;BME280;43426;43.594;24.334;2024-03-08T09:21:25;101805.44;;;4.68;100.00
57600;BME280;43426;43.594;24.334;2024-03-08T09:23:51;101815.78;;;4.73;100.00
57600;BME280;43426;43.594;24.334;2024-03-08T09:26:17;101824.34;;;4.91;100.00
57600;BME280;43426;43.594;24.334;2024-03-08T09:28:42;101813.75;;;5.02;100.00
57600;BME280;43426;43.594;24.334;2024-03-08T09:31:08;101820.94;;;5.02;100.00
57600;BME280;43426;43.594;24.334;2024-03-08T09:33:33;101815.50;;;4.90;100.00
57600;BME280;43426;43.594;24.334;2024-03-08T09:35:59;101766.06;;;4.57;100.00
57600;BME280;43426;43.594;24.334;2024-03-08T09:38:24;101824.97;;;4.82;100.00
57600;BME280;43426;43.594;24.334;2024-03-08T09:40:51;101831.94;;;4.71;100.00
57600;BME280;43426;43.594;24.334;2024-03-08T09:43:16;101808.09;;;4.68;100.00
57600;BME280;43426;43.594;24.334;2024-03-08T09:45:45;101828.53;;;4.82;100.00
57600;BME280;43426;43.594;24.334;2024-03-08T09:48:12;101812.59;;;4.81;100.00
57600;BME280;43426;43.594;24.334;2024-03-08T09:50:42;101837.72;;;5.04;100.00
57600;BME280;43426;43.594;24.334;2024-03-08T09:53:08;101818.25;;;5.02;100.00
57600;BME280;43426;43.594;24.334;2024-03-08T09:55:38;101834.91;;;5.31;100.00
57600;BME280;43426;43.594;24.334;2024-03-08T09:58:09;101822.91;;;5.37;100.00
57600;BME280;43426;43.594;24.334;2024-03-08T10:00:41;101808.81;;;5.59;100.00
57600;BME280;43426;43.594;24.334;2024-03-08T10:03:07;101803.03;;;5.65;100.00
57600;BME280;43426;43.594;24.334;2024-03-08T10:05:34;101833.41;;;5.77;100.00
57600;BME280;43426;43.594;24.334;2024-03-08T10:08:00;101813.47;;;5.81;100.00
57600;BME280;43426;43.594;24.334;2024-03-08T10:10:25;101835.41;;;5.86;100.00
57600;BME280;43426;43.594;24.334;2024-03-08T10:12:51;101820.00;;;5.77;100.00
57600;BME280;43426;43.594;24.334;2024-03-08T10:15:17;101828.22;;;6.00;100.00
57600;BME280;43426;43.594;24.334;2024-03-08T10:17:43;101830.13;;;5.97;100.00
57600;BME280;43426;43.594;24.334;2024-03-08T10:20:18;101835.00;;;5.79;100.00
57600;BME280;43426;43.594;24.334;2024-03-08T10:22:44;101816.31;;;5.67;100.00
57600;BME280;43426;43.594;24.334;2024-03-08T10:25:10;101835.16;;;5.89;100.00
57600;BME280;43426;43.594;24.334;2024-03-08T10:27:38;101838.50;;;5.93;100.00
57600;BME280;43426;43.594;24.334;2024-03-08T10:30:06;101835.75;;;5.82;100.00
57600;BME280;43426;43.594;24.334;2024-03-08T10:32:35;101826.31;;;5.76;100.00
57600;BME280;43426;43.594;24.334;2024-03-08T10:35:01;101841.06;;;5.57;100.00
57600;BME280;43426;43.594;24.334;2024-03-08T10:37:27;101817.84;;;5.45;100.00
57600;BME280;43426;43.594;24.334;2024-03-08T10:40:03;101792.78;;;5.09;100.00
57600;BME280;43426;43.594;24.334;2024-03-08T10:42:51;101786.81;;;4.92;100.00
57600;BME280;43426;43.594;24.334;2024-03-08T10:45:38;101821.38;;;5.08;100.00
57600;BME280;43426;43.594;24.334;2024-03-08T10:48:27;101831.63;;;5.27;100.00
57600;BME280;43426;43.594;24.334;2024-03-08T10:50:57;101822.69;;;5.40;100.00
57600;BME280;43426;43.594;24.334;2024-03-08T10:53:23;101814.88;;;5.37;100.00
57600;BME280;43426;43.594;24.334;2024-03-08T10:55:49;101802.75;;;5.57;100.00
57600;BME280;43426;43.594;24.334;2024-03-08T10:58:20;101811.75;;;5.80;100.00
57600;BME280;43426;43.594;24.334;2024-03-08T11:00:55;101804.34;;;5.84;100.00
57600;BME280;43426;43.594;24.334;2024-03-08T11:08:47;101775.25;;;5.79;100.00
57600;BME280;43426;43.594;24.334;2024-03-08T11:11:26;101788.38;;;5.82;100.00
57600;BME280;43426;43.594;24.334;2024-03-08T11:14:00;101753.53;;;5.71;100.00
57600;BME280;43426;43.594;24.334;2024-03-08T11:21:36;101801.50;;;5.98;100.00
57600;BME280;43426;43.594;24.334;2024-03-08T11:24:12;101775.34;;;5.77;100.00
57600;BME280;43426;43.594;24.334;2024-03-08T11:26:39;101796.47;;;5.93;100.00
57600;BME280;43426;43.594;24.334;2024-03-08T11:32:09;101810.59;;;5.71;100.00
57600;BME280;43426;43.594;24.334;2024-03-08T11:34:36;101776.53;;;5.49;100.00
57600;BME280;43426;43.594;24.334;2024-03-08T11:37:12;101791.78;;;5.60;100.00
57600;BME280;43426;43.594;24.334;2024-03-08T11:39:39;101802.63;;;5.58;100.00
57600;BME280;43426;43.594;24.334;2024-03-08T11:42:05;101792.63;;;5.60;100.00
57600;BME280;43426;43.594;24.334;2024-03-08T11:44:32;101801.19;;;5.66;100.00
57600;BME280;43426;43.594;24.334;2024-03-08T11:46:57;101782.72;;;5.50;100.00
57600;BME280;43426;43.594;24.334;2024-03-08T11:49:23;101794.00;;;5.66;100.00
57600;BME280;43426;43.594;24.334;2024-03-08T11:51:52;101795.56;;;5.57;100.00
57600;BME280;43426;43.594;24.334;2024-03-08T11:54:19;101789.47;;;5.55;100.00
57600;BME280;43426;43.594;24.334;2024-03-08T11:56:45;101793.16;;;5.66;100.00
57600;BME280;43426;43.594;24.334;2024-03-08T11:59:13;101789.19;;;5.47;100.00
57600;BME280;43426;43.594;24.334;2024-03-08T12:01:39;101791.97;;;5.33;100.00
57600;BME280;43426;43.594;24.334;2024-03-08T12:04:04;101789.41;;;5.31;100.00
57600;BME280;43426;43.594;24.334;2024-03-08T12:06:39;101763.41;;;5.33;100.00
57600;BME280;43426;43.594;24.334;2024-03-08T12:09:11;101759.13;;;5.31;100.00
57600;BME280;43426;43.594;24.334;2024-03-08T12:11:38;101759.25;;;5.16;100.00
57600;BME280;43426;43.594;24.334;2024-03-08T12:14:04;101788.53;;;5.43;100.00
57600;BME280;43426;43.594;24.334;2024-03-08T12:16:30;101788.00;;;5.38;100.00
57600;BME280;43426;43.594;24.334;2024-03-08T12:18:57;101779.56;;;5.32;100.00
57600;BME280;43426;43.594;24.334;2024-03-08T12:21:26;101776.69;;;5.35;100.00
57600;BME280;43426;43.594;24.334;2024-03-08T12:24:08;101790.84;;;5.48;100.00
57600;BME280;43426;43.594;24.334;2024-03-08T12:26:38;101761.75;;;5.19;100.00
57600;BME280;43426;43.594;24.334;2024-03-08T12:29:25;101761.94;;;5.16;100.00
57600;BME280;43426;43.594;24.334;2024-03-08T12:31:55;101775.81;;;5.34;100.00
57600;BME280;43426;43.594;24.334;2024-03-08T12:34:24;101730.06;;;5.13;100.00
57600;BME280;43426;43.594;24.334;2024-03-08T12:36:50;101778.13;;;5.52;100.00
57600;BME280;43426;43.594;24.334;2024-03-08T12:39:17;101780.28;;;5.46;100.00
57600;BME280;43426;43.594;24.334;2024-03-08T12:41:44;101779.44;;;5.70;100.00
57600;BME280;43426;43.594;24.334;2024-03-08T12:44:09;101751.13;;;5.55;100.00
57600;BME280;43426;43.594;24.334;2024-03-08T12:46:39;101780.09;;;5.37;100.00
57600;BME280;43426;43.594;24.334;2024-03-08T12:49:10;101760.41;;;5.38;100.00
57600;BME280;43426;43.594;24.334;2024-03-08T12:51:38;101746.47;;;5.33;100.00
57600;BME280;43426;43.594;24.334;2024-03-08T12:54:04;101741.00;;;5.47;100.00